sensor_id;sensor_type;location;lat;lon;timestamp;P1;durP1;ratioP1;P2;durP2;ratioP2
1879;SDS011;49285;49.002;8.390;2022-07-29T00:01:16;6.70;;;6.10;;
1879;SDS011;49285;49.002;8.390;2022-07-29T00:03:42;6.80;;;6.20;;
1879;SDS011;49285;49.002;8.390;2022-07-29T00:06:07;6.17;;;5.60;;
1879;SDS011;49285;49.002;8.390;2022-07-29T00:08:33;8.47;;;5.97;;
1879;SDS011;49285;49.002;8.390;2022-07-29T00:10:58;7.10;;;6.40;;
1879;SDS011;49285;49.002;8.390;2022-07-29T00:13:24;6.17;;;5.77;;
1879;SDS011;49285;49.002;8.390;2022-07-29T00:15:50;6.37;;;5.83;;
1879;SDS011;49285;49.002;8.390;2022-07-29T00:18:15;7.20;;;6.50;;
1879;SDS011;49285;49.002;8.390;2022-07-29T00:20:41;6.70;;;6.00;;
1879;SDS011;49285;49.002;8.390;2022-07-29T00:23:06;6.33;;;5.73;;
1879;SDS011;49285;49.002;8.390;2022-07-29T00:25:32;8.03;;;6.47;;
1879;SDS011;49285;49.002;8.390;2022-07-29T00:27:58;6.20;;;5.70;;
1879;SDS011;49285;49.002;8.390;2022-07-29T00:30:23;6.60;;;5.97;;
1879;SDS011;49285;49.002;8.390;2022-07-29T00:32:49;6.17;;;5.57;;
1879;SDS011;49285;49.002;8.390;2022-07-29T00:35:15;6.47;;;5.97;;
1879;SDS011;49285;49.002;8.390;2022-07-29T00:37:59;5.90;;;5.40;;
1879;SDS011;49285;49.002;8.390;2022-07-29T00:40:24;6.27;;;5.63;;
1879;SDS011;49285;49.002;8.390;2022-07-29T00:42:51;5.40;;;5.00;;
1879;SDS011;49285;49.002;8.390;2022-07-29T00:45:17;7.20;;;6.10;;
1879;SDS011;49285;49.002;8.390;2022-07-29T00:47:44;7.20;;;5.70;;
1879;SDS011;49285;49.002;8.390;2022-07-29T00:50:10;6.30;;;5.67;;
1879;SDS011;49285;49.002;8.390;2022-07-29T00:52:38;6.50;;;5.80;;
1879;SDS011;49285;49.002;8.390;2022-07-29T00:55:05;6.50;;;6.00;;
1879;SDS011;49285;49.002;8.390;2022-07-29T00:57:33;6.30;;;5.80;;
1879;SDS011;49285;49.002;8.390;2022-07-29T00:59:59;6.37;;;5.87;;
1879;SDS011;49285;49.002;8.390;2022-07-29T01:02:25;6.13;;;5.60;;
1879;SDS011;49285;49.002;8.390;2022-07-29T01:04:50;6.13;;;5.63;;
1879;SDS011;49285;49.002;8.390;2022-07-29T01:07:17;6.20;;;5.60;;
1879;SDS011;49285;49.002;8.390;2022-07-29T01:09:43;6.30;;;5.70;;
1879;SDS011;49285;49.002;8.390;2022-07-29T01:12:11;8.37;;;6.20;;
1879;SDS011;49285;49.002;8.390;2022-07-29T01:14:39;5.80;;;5.30;;
1879;SDS011;49285;49.002;8.390;2022-07-29T01:17:14;6.00;;;5.40;;
1879;SDS011;49285;49.002;8.390;2022-07-29T01:30:25;6.97;;;5.53;;
1879;SDS011;49285;49.002;8.390;2022-07-29T01:32:56;8.50;;;6.00;;
1879;SDS011;49285;49.002;8.390;2022-07-29T01:35:28;6.67;;;6.07;;
1879;SDS011;49285;49.002;8.390;2022-07-29T01:38:11;6.27;;;5.77;;
1879;SDS011;49285;49.002;8.390;2022-07-29T01:40:47;6.60;;;6.00;;
1879;SDS011;49285;49.002;8.390;2022-07-29T01:43:21;7.40;;;5.60;;
1879;SDS011;49285;49.002;8.390;2022-07-29T01:45:56;6.13;;;5.57;;
1879;SDS011;49285;49.002;8.390;2022-07-29T01:51:05;6.10;;;5.50;;
1879;SDS011;49285;49.002;8.390;2022-07-29T01:53:58;7.57;;;6.63;;
1879;SDS011;49285;49.002;8.390;2022-07-29T01:56:35;7.50;;;6.30;;
1879;SDS011;49285;49.002;8.390;2022-07-29T01:59:03;6.60;;;5.90;;
1879;SDS011;49285;49.002;8.390;2022-07-29T02:01:32;7.00;;;6.13;;
1879;SDS011;49285;49.002;8.390;2022-07-29T02:04:01;5.97;;;5.47;;
1879;SDS011;49285;49.002;8.390;2022-07-29T02:06:29;6.70;;;6.10;;
1879;SDS011;49285;49.002;8.390;2022-07-29T02:08:57;5.50;;;5.10;;
1879;SDS011;49285;49.002;8.390;2022-07-29T02:11:24;6.30;;;5.70;;
1879;SDS011;49285;49.002;8.390;2022-07-29T02:13:50;6.43;;;5.83;;
1879;SDS011;49285;49.002;8.390;2022-07-29T02:16:21;7.53;;;6.67;;
1879;SDS011;49285;49.002;8.390;2022-07-29T02:18:48;6.20;;;5.60;;
1879;SDS011;49285;49.002;8.390;2022-07-29T02:21:19;6.77;;;5.67;;
1879;SDS011;49285;49.002;8.390;2022-07-29T02:23:49;8.07;;;7.30;;
1879;SDS011;49285;49.002;8.390;2022-07-29T02:26:18;6.60;;;6.03;;
1879;SDS011;49285;49.002;8.390;2022-07-29T02:28:46;6.90;;;6.30;;
1879;SDS011;49285;49.002;8.390;2022-07-29T02:31:14;6.43;;;5.83;;
1879;SDS011;49285;49.002;8.390;2022-07-29T02:33:42;6.73;;;6.03;;
1879;SDS011;49285;49.002;8.390;2022-07-29T02:36:09;6.43;;;5.90;;
1879;SDS011;49285;49.002;8.390;2022-07-29T02:38:35;6.50;;;5.90;;
1879;SDS011;49285;49.002;8.390;2022-07-29T02:41:17;6.77;;;6.27;;
1879;SDS011;49285;49.002;8.390;2022-07-29T02:44:19;7.10;;;6.60;;
1879;SDS011;49285;49.002;8.390;2022-07-29T02:46:48;6.20;;;5.60;;
1879;SDS011;49285;49.002;8.390;2022-07-29T02:49:28;6.93;;;6.43;;
1879;SDS011;49285;49.002;8.390;2022-07-29T02:52:01;6.70;;;6.10;;
1879;SDS011;49285;49.002;8.390;2022-07-29T02:54:46;8.43;;;5.90;;
1879;SDS011;49285;49.002;8.390;2022-07-29T02:57:19;6.40;;;5.90;;
1879;SDS011;49285;49.002;8.390;2022-07-29T02:59:48;10.40;;;6.10;;
1879;SDS011;49285;49.002;8.390;2022-07-29T03:02:17;7.00;;;6.40;;
1879;SDS011;49285;49.002;8.390;2022-07-29T03:04:45;6.57;;;6.07;;
1879;SDS011;49285;49.002;8.390;2022-07-29T03:07:13;6.93;;;6.00;;
1879;SDS011;49285;49.002;8.390;2022-07-29T03:09:40;6.53;;;5.90;;
1879;SDS011;49285;49.002;8.390;2022-07-29T03:12:12;6.30;;;5.70;;
1879;SDS011;49285;49.002;8.390;2022-07-29T03:14:39;7.30;;;6.60;;
1879;SDS011;49285;49.002;8.390;2022-07-29T03:17:05;6.83;;;6.23;;
1879;SDS011;49285;49.002;8.390;2022-07-29T03:19:32;7.20;;;6.53;;
1879;SDS011;49285;49.002;8.390;2022-07-29T03:21:59;6.83;;;6.20;;
1879;SDS011;49285;49.002;8.390;2022-07-29T03:24:35;7.53;;;6.60;;
1879;SDS011;49285;49.002;8.390;2022-07-29T03:27:01;9.33;;;6.70;;
1879;SDS011;49285;49.002;8.390;2022-07-29T03:29:28;7.57;;;6.87;;
1879;SDS011;49285;49.002;8.390;2022-07-29T03:31:54;6.93;;;6.33;;
1879;SDS011;49285;49.002;8.390;2022-07-29T03:34:20;8.80;;;7.80;;
1879;SDS011;49285;49.002;8.390;2022-07-29T03:36:47;7.37;;;6.67;;
1879;SDS011;49285;49.002;8.390;2022-07-29T03:39:14;6.27;;;5.80;;
1879;SDS011;49285;49.002;8.390;2022-07-29T03:41:43;8.33;;;6.47;;
1879;SDS011;49285;49.002;8.390;2022-07-29T03:44:10;7.30;;;6.60;;
1879;SDS011;49285;49.002;8.390;2022-07-29T03:46:37;6.57;;;6.07;;
1879;SDS011;49285;49.002;8.390;2022-07-29T03:49:04;7.33;;;6.20;;
1879;SDS011;49285;49.002;8.390;2022-07-29T03:51:33;7.30;;;6.20;;
1879;SDS011;49285;49.002;8.390;2022-07-29T03:54:02;8.10;;;6.83;;
1879;SDS011;49285;49.002;8.390;2022-07-29T03:56:29;7.00;;;6.40;;
1879;SDS011;49285;49.002;8.390;2022-07-29T03:58:57;10.67;;;7.10;;
1879;SDS011;49285;49.002;8.390;2022-07-29T04:01:23;9.20;;;6.93;;
1879;SDS011;49285;49.002;8.390;2022-07-29T04:03:50;7.40;;;6.37;;
1879;SDS011;49285;49.002;8.390;2022-07-29T04:06:16;6.80;;;6.20;;
1879;SDS011;49285;49.002;8.390;2022-07-29T04:08:42;7.10;;;6.50;;
1879;SDS011;49285;49.002;8.390;2022-07-29T04:11:07;7.03;;;6.33;;
1879;SDS011;49285;49.002;8.390;2022-07-29T04:13:33;7.17;;;6.43;;
1879;SDS011;49285;49.002;8.390;2022-07-29T04:15:59;7.30;;;6.50;;
1879;SDS011;49285;49.002;8.390;2022-07-29T04:18:24;7.33;;;6.63;;
1879;SDS011;49285;49.002;8.390;2022-07-29T04:20:50;6.80;;;6.20;;
1879;SDS011;49285;49.002;8.390;2022-07-29T04:23:16;6.90;;;6.30;;
1879;SDS011;49285;49.002;8.390;2022-07-29T04:25:42;6.60;;;6.00;;
1879;SDS011;49285;49.002;8.390;2022-07-29T04:28:08;7.13;;;6.50;;
1879;SDS011;49285;49.002;8.390;2022-07-29T04:30:35;8.93;;;6.67;;
1879;SDS011;49285;49.002;8.390;2022-07-29T04:33:03;10.00;;;7.43;;
1879;SDS011;49285;49.002;8.390;2022-07-29T04:35:30;8.63;;;7.10;;
1879;SDS011;49285;49.002;8.390;2022-07-29T04:37:58;7.50;;;6.70;;
1879;SDS011;49285;49.002;8.390;2022-07-29T04:40:23;8.40;;;7.60;;
1879;SDS011;49285;49.002;8.390;2022-07-29T04:42:49;8.30;;;7.60;;
1879;SDS011;49285;49.002;8.390;2022-07-29T04:45:15;8.67;;;7.37;;
1879;SDS011;49285;49.002;8.390;2022-07-29T04:47:40;10.27;;;8.93;;
1879;SDS011;49285;49.002;8.390;2022-07-29T04:50:07;9.47;;;8.43;;
1879;SDS011;49285;49.002;8.390;2022-07-29T04:52:33;8.87;;;8.07;;
1879;SDS011;49285;49.002;8.390;2022-07-29T04:55:00;9.30;;;8.50;;
1879;SDS011;49285;49.002;8.390;2022-07-29T04:57:26;10.43;;;7.70;;
1879;SDS011;49285;49.002;8.390;2022-07-29T04:59:51;9.23;;;8.43;;
1879;SDS011;49285;49.002;8.390;2022-07-29T05:02:17;9.87;;;8.00;;
1879;SDS011;49285;49.002;8.390;2022-07-29T05:04:43;9.13;;;8.17;;
1879;SDS011;49285;49.002;8.390;2022-07-29T05:07:08;8.37;;;7.53;;
1879;SDS011;49285;49.002;8.390;2022-07-29T05:09:34;9.40;;;7.80;;
1879;SDS011;49285;49.002;8.390;2022-07-29T05:12:00;9.63;;;8.20;;
1879;SDS011;49285;49.002;8.390;2022-07-29T05:14:25;13.30;;;7.50;;
1879;SDS011;49285;49.002;8.390;2022-07-29T05:16:51;9.80;;;8.90;;
1879;SDS011;49285;49.002;8.390;2022-07-29T05:19:17;9.70;;;8.40;;
1879;SDS011;49285;49.002;8.390;2022-07-29T05:21:46;9.27;;;7.40;;
1879;SDS011;49285;49.002;8.390;2022-07-29T05:24:12;10.67;;;9.50;;
1879;SDS011;49285;49.002;8.390;2022-07-29T05:26:38;7.67;;;7.07;;
1879;SDS011;49285;49.002;8.390;2022-07-29T05:29:04;9.70;;;8.20;;
1879;SDS011;49285;49.002;8.390;2022-07-29T05:31:30;8.90;;;8.10;;
1879;SDS011;49285;49.002;8.390;2022-07-29T05:33:55;9.67;;;8.60;;
1879;SDS011;49285;49.002;8.390;2022-07-29T05:36:21;8.50;;;7.70;;
1879;SDS011;49285;49.002;8.390;2022-07-29T05:38:47;11.97;;;7.73;;
1879;SDS011;49285;49.002;8.390;2022-07-29T05:41:12;9.07;;;8.27;;
1879;SDS011;49285;49.002;8.390;2022-07-29T05:43:38;8.57;;;7.77;;
1879;SDS011;49285;49.002;8.390;2022-07-29T05:46:04;8.13;;;7.37;;
1879;SDS011;49285;49.002;8.390;2022-07-29T05:48:29;8.80;;;8.00;;
1879;SDS011;49285;49.002;8.390;2022-07-29T05:50:55;8.07;;;7.37;;
1879;SDS011;49285;49.002;8.390;2022-07-29T05:53:21;10.20;;;8.20;;
1879;SDS011;49285;49.002;8.390;2022-07-29T05:55:47;13.03;;;8.80;;
1879;SDS011;49285;49.002;8.390;2022-07-29T05:58:13;9.50;;;8.40;;
1879;SDS011;49285;49.002;8.390;2022-07-29T06:00:39;8.90;;;8.20;;
1879;SDS011;49285;49.002;8.390;2022-07-29T06:03:05;8.50;;;7.67;;
1879;SDS011;49285;49.002;8.390;2022-07-29T06:05:30;12.00;;;7.60;;
1879;SDS011;49285;49.002;8.390;2022-07-29T06:07:56;9.73;;;7.50;;
1879;SDS011;49285;49.002;8.390;2022-07-29T06:10:22;8.57;;;7.63;;
1879;SDS011;49285;49.002;8.390;2022-07-29T06:12:47;8.93;;;7.37;;
1879;SDS011;49285;49.002;8.390;2022-07-29T06:15:13;7.90;;;7.20;;
1879;SDS011;49285;49.002;8.390;2022-07-29T06:17:39;9.33;;;8.23;;
1879;SDS011;49285;49.002;8.390;2022-07-29T06:20:05;7.70;;;7.00;;
1879;SDS011;49285;49.002;8.390;2022-07-29T06:22:31;10.57;;;8.07;;
1879;SDS011;49285;49.002;8.390;2022-07-29T06:24:56;8.10;;;7.40;;
1879;SDS011;49285;49.002;8.390;2022-07-29T06:27:22;11.30;;;8.30;;
1879;SDS011;49285;49.002;8.390;2022-07-29T06:29:48;8.63;;;7.93;;
1879;SDS011;49285;49.002;8.390;2022-07-29T06:32:13;8.77;;;7.90;;
1879;SDS011;49285;49.002;8.390;2022-07-29T06:34:39;12.07;;;8.10;;
1879;SDS011;49285;49.002;8.390;2022-07-29T06:37:05;9.13;;;7.63;;
1879;SDS011;49285;49.002;8.390;2022-07-29T06:39:33;12.53;;;8.03;;
1879;SDS011;49285;49.002;8.390;2022-07-29T06:42:00;8.20;;;7.40;;
1879;SDS011;49285;49.002;8.390;2022-07-29T06:44:26;9.67;;;8.10;;
1879;SDS011;49285;49.002;8.390;2022-07-29T06:46:51;7.93;;;7.13;;
1879;SDS011;49285;49.002;8.390;2022-07-29T06:49:18;8.30;;;7.10;;
1879;SDS011;49285;49.002;8.390;2022-07-29T06:51:43;7.30;;;6.60;;
1879;SDS011;49285;49.002;8.390;2022-07-29T06:54:09;7.57;;;6.97;;
1879;SDS011;49285;49.002;8.390;2022-07-29T06:56:35;10.83;;;7.00;;
1879;SDS011;49285;49.002;8.390;2022-07-29T06:59:02;7.70;;;6.90;;
1879;SDS011;49285;49.002;8.390;2022-07-29T07:01:28;8.43;;;7.13;;
1879;SDS011;49285;49.002;8.390;2022-07-29T07:03:54;7.80;;;7.00;;
1879;SDS011;49285;49.002;8.390;2022-07-29T07:06:19;8.00;;;7.37;;
1879;SDS011;49285;49.002;8.390;2022-07-29T07:08:45;6.83;;;6.23;;
1879;SDS011;49285;49.002;8.390;2022-07-29T07:11:11;7.73;;;7.07;;
1879;SDS011;49285;49.002;8.390;2022-07-29T07:13:36;8.47;;;6.50;;
1879;SDS011;49285;49.002;8.390;2022-07-29T07:16:02;7.37;;;6.67;;
1879;SDS011;49285;49.002;8.390;2022-07-29T07:18:29;12.97;;;6.83;;
1879;SDS011;49285;49.002;8.390;2022-07-29T07:20:55;7.63;;;6.80;;
1879;SDS011;49285;49.002;8.390;2022-07-29T07:23:21;9.83;;;7.30;;
1879;SDS011;49285;49.002;8.390;2022-07-29T07:25:47;9.17;;;6.87;;
1879;SDS011;49285;49.002;8.390;2022-07-29T07:28:13;7.90;;;6.30;;
1879;SDS011;49285;49.002;8.390;2022-07-29T07:30:39;6.50;;;6.00;;
1879;SDS011;49285;49.002;8.390;2022-07-29T07:33:04;8.50;;;6.33;;
1879;SDS011;49285;49.002;8.390;2022-07-29T07:35:30;7.73;;;6.10;;
1879;SDS011;49285;49.002;8.390;2022-07-29T07:37:56;7.80;;;6.70;;
1879;SDS011;49285;49.002;8.390;2022-07-29T07:40:23;11.00;;;6.67;;
1879;SDS011;49285;49.002;8.390;2022-07-29T07:42:49;9.87;;;7.37;;
1879;SDS011;49285;49.002;8.390;2022-07-29T07:45:15;7.80;;;7.20;;
1879;SDS011;49285;49.002;8.390;2022-07-29T07:47:41;7.67;;;6.97;;
1879;SDS011;49285;49.002;8.390;2022-07-29T07:50:07;6.60;;;6.00;;
1879;SDS011;49285;49.002;8.390;2022-07-29T07:52:37;7.90;;;7.10;;
1879;SDS011;49285;49.002;8.390;2022-07-29T07:55:11;6.53;;;5.87;;
1879;SDS011;49285;49.002;8.390;2022-07-29T07:57:37;8.43;;;6.63;;
1879;SDS011;49285;49.002;8.390;2022-07-29T08:00:03;6.97;;;6.37;;
1879;SDS011;49285;49.002;8.390;2022-07-29T08:02:29;6.90;;;6.20;;
1879;SDS011;49285;49.002;8.390;2022-07-29T08:04:55;8.27;;;6.07;;
1879;SDS011;49285;49.002;8.390;2022-07-29T08:07:20;6.33;;;5.73;;
1879;SDS011;49285;49.002;8.390;2022-07-29T08:09:46;11.07;;;5.90;;
1879;SDS011;49285;49.002;8.390;2022-07-29T08:12:12;6.33;;;5.20;;
1879;SDS011;49285;49.002;8.390;2022-07-29T08:14:37;6.63;;;5.53;;
1879;SDS011;49285;49.002;8.390;2022-07-29T08:17:03;7.13;;;5.27;;
1879;SDS011;49285;49.002;8.390;2022-07-29T08:19:29;6.77;;;5.97;;
1879;SDS011;49285;49.002;8.390;2022-07-29T08:21:54;6.43;;;5.83;;
1879;SDS011;49285;49.002;8.390;2022-07-29T08:24:20;8.37;;;5.73;;
1879;SDS011;49285;49.002;8.390;2022-07-29T08:27:05;6.47;;;5.43;;
1879;SDS011;49285;49.002;8.390;2022-07-29T08:29:31;8.03;;;5.63;;
1879;SDS011;49285;49.002;8.390;2022-07-29T08:31:57;6.77;;;5.70;;
1879;SDS011;49285;49.002;8.390;2022-07-29T08:34:23;5.73;;;5.13;;
1879;SDS011;49285;49.002;8.390;2022-07-29T08:36:48;9.43;;;5.80;;
1879;SDS011;49285;49.002;8.390;2022-07-29T08:39:14;5.17;;;4.67;;
1879;SDS011;49285;49.002;8.390;2022-07-29T08:41:39;6.23;;;5.10;;
1879;SDS011;49285;49.002;8.390;2022-07-29T08:44:05;11.60;;;5.37;;
1879;SDS011;49285;49.002;8.390;2022-07-29T08:46:31;6.13;;;5.50;;
1879;SDS011;49285;49.002;8.390;2022-07-29T08:48:56;9.13;;;5.47;;
1879;SDS011;49285;49.002;8.390;2022-07-29T08:51:22;8.40;;;5.30;;
1879;SDS011;49285;49.002;8.390;2022-07-29T08:53:50;5.87;;;4.70;;
1879;SDS011;49285;49.002;8.390;2022-07-29T08:56:16;7.70;;;4.67;;
1879;SDS011;49285;49.002;8.390;2022-07-29T08:58:43;5.60;;;5.10;;
1879;SDS011;49285;49.002;8.390;2022-07-29T09:01:10;5.50;;;5.03;;
1879;SDS011;49285;49.002;8.390;2022-07-29T09:03:40;10.20;;;5.40;;
1879;SDS011;49285;49.002;8.390;2022-07-29T09:06:08;13.87;;;6.10;;
1879;SDS011;49285;49.002;8.390;2022-07-29T09:08:34;4.57;;;4.17;;
1879;SDS011;49285;49.002;8.390;2022-07-29T09:11:02;5.63;;;4.60;;
1879;SDS011;49285;49.002;8.390;2022-07-29T09:13:28;5.83;;;5.20;;
1879;SDS011;49285;49.002;8.390;2022-07-29T09:15:54;5.93;;;4.30;;
1879;SDS011;49285;49.002;8.390;2022-07-29T09:18:36;5.43;;;4.83;;
1879;SDS011;49285;49.002;8.390;2022-07-29T09:21:03;5.30;;;4.80;;
1879;SDS011;49285;49.002;8.390;2022-07-29T09:26:29;7.87;;;4.47;;
1879;SDS011;49285;49.002;8.390;2022-07-29T09:28:56;7.80;;;5.40;;
1879;SDS011;49285;49.002;8.390;2022-07-29T09:31:32;6.07;;;4.97;;
1879;SDS011;49285;49.002;8.390;2022-07-29T09:33:59;5.73;;;4.80;;
1879;SDS011;49285;49.002;8.390;2022-07-29T09:36:25;5.50;;;5.00;;
1879;SDS011;49285;49.002;8.390;2022-07-29T09:38:58;7.97;;;5.57;;
1879;SDS011;49285;49.002;8.390;2022-07-29T09:41:28;5.70;;;5.17;;
1879;SDS011;49285;49.002;8.390;2022-07-29T09:43:58;8.33;;;5.57;;
1879;SDS011;49285;49.002;8.390;2022-07-29T09:46:24;6.43;;;5.27;;
1879;SDS011;49285;49.002;8.390;2022-07-29T09:49:06;5.37;;;4.80;;
1879;SDS011;49285;49.002;8.390;2022-07-29T09:51:33;6.67;;;5.30;;
1879;SDS011;49285;49.002;8.390;2022-07-29T09:53:58;5.97;;;4.90;;
1879;SDS011;49285;49.002;8.390;2022-07-29T09:56:40;6.70;;;5.23;;
1879;SDS011;49285;49.002;8.390;2022-07-29T09:59:07;6.17;;;5.57;;
1879;SDS011;49285;49.002;8.390;2022-07-29T10:01:34;8.43;;;5.80;;
1879;SDS011;49285;49.002;8.390;2022-07-29T10:04:01;8.40;;;4.70;;
1879;SDS011;49285;49.002;8.390;2022-07-29T10:06:26;12.00;;;4.73;;
1879;SDS011;49285;49.002;8.390;2022-07-29T10:08:52;7.47;;;5.87;;
1879;SDS011;49285;49.002;8.390;2022-07-29T10:11:18;6.23;;;5.00;;
1879;SDS011;49285;49.002;8.390;2022-07-29T10:13:45;6.40;;;5.80;;
1879;SDS011;49285;49.002;8.390;2022-07-29T10:16:13;5.73;;;5.23;;
1879;SDS011;49285;49.002;8.390;2022-07-29T10:18:41;6.93;;;5.47;;
1879;SDS011;49285;49.002;8.390;2022-07-29T10:21:08;5.67;;;5.17;;
1879;SDS011;49285;49.002;8.390;2022-07-29T10:23:35;7.27;;;4.80;;
1879;SDS011;49285;49.002;8.390;2022-07-29T10:26:01;6.30;;;5.20;;
1879;SDS011;49285;49.002;8.390;2022-07-29T10:28:29;5.47;;;4.97;;
1879;SDS011;49285;49.002;8.390;2022-07-29T10:31:00;5.20;;;4.70;;
1879;SDS011;49285;49.002;8.390;2022-07-29T10:44:35;7.20;;;4.60;;
1879;SDS011;49285;49.002;8.390;2022-07-29T10:47:05;6.20;;;4.90;;
1879;SDS011;49285;49.002;8.390;2022-07-29T10:49:31;7.70;;;5.30;;
1879;SDS011;49285;49.002;8.390;2022-07-29T10:59:44;8.33;;;4.70;;
1879;SDS011;49285;49.002;8.390;2022-07-29T11:02:45;8.23;;;4.80;;
1879;SDS011;49285;49.002;8.390;2022-07-29T11:05:16;5.50;;;4.40;;
1879;SDS011;49285;49.002;8.390;2022-07-29T11:13:56;6.00;;;5.07;;
1879;SDS011;49285;49.002;8.390;2022-07-29T11:16:22;5.27;;;4.77;;
1879;SDS011;49285;49.002;8.390;2022-07-29T11:21:48;5.80;;;4.37;;
1879;SDS011;49285;49.002;8.390;2022-07-29T11:29:33;5.17;;;4.77;;
1879;SDS011;49285;49.002;8.390;2022-07-29T11:32:10;5.57;;;4.43;;
1879;SDS011;49285;49.002;8.390;2022-07-29T11:34:39;4.80;;;4.40;;
1879;SDS011;49285;49.002;8.390;2022-07-29T11:44:57;5.60;;;5.10;;
1879;SDS011;49285;49.002;8.390;2022-07-29T11:47:27;5.73;;;4.70;;
1879;SDS011;49285;49.002;8.390;2022-07-29T11:49:57;7.70;;;4.90;;
1879;SDS011;49285;49.002;8.390;2022-07-29T11:52:32;5.60;;;4.27;;
1879;SDS011;49285;49.002;8.390;2022-07-29T11:55:08;4.50;;;4.10;;
1879;SDS011;49285;49.002;8.390;2022-07-29T11:57:35;4.67;;;4.27;;
1879;SDS011;49285;49.002;8.390;2022-07-29T12:00:03;5.17;;;4.40;;
1879;SDS011;49285;49.002;8.390;2022-07-29T12:02:39;8.50;;;4.50;;
1879;SDS011;49285;49.002;8.390;2022-07-29T12:05:09;4.53;;;4.13;;
1879;SDS011;49285;49.002;8.390;2022-07-29T12:07:36;5.23;;;3.90;;
1879;SDS011;49285;49.002;8.390;2022-07-29T12:10:03;5.33;;;4.60;;
1879;SDS011;49285;49.002;8.390;2022-07-29T12:12:30;5.90;;;4.50;;
1879;SDS011;49285;49.002;8.390;2022-07-29T12:14:56;4.80;;;4.40;;
1879;SDS011;49285;49.002;8.390;2022-07-29T12:17:28;5.90;;;3.80;;
1879;SDS011;49285;49.002;8.390;2022-07-29T12:19:56;5.90;;;4.37;;
1879;SDS011;49285;49.002;8.390;2022-07-29T12:25:08;4.40;;;4.10;;
1879;SDS011;49285;49.002;8.390;2022-07-29T12:27:40;6.20;;;4.30;;
1879;SDS011;49285;49.002;8.390;2022-07-29T12:30:08;5.23;;;4.20;;
1879;SDS011;49285;49.002;8.390;2022-07-29T12:32:37;5.13;;;4.37;;
1879;SDS011;49285;49.002;8.390;2022-07-29T12:35:13;9.00;;;4.17;;
1879;SDS011;49285;49.002;8.390;2022-07-29T12:37:41;7.00;;;4.50;;
1879;SDS011;49285;49.002;8.390;2022-07-29T12:40:08;5.23;;;4.50;;
1879;SDS011;49285;49.002;8.390;2022-07-29T12:42:36;10.23;;;4.20;;
1879;SDS011;49285;49.002;8.390;2022-07-29T12:45:02;4.60;;;4.20;;
1879;SDS011;49285;49.002;8.390;2022-07-29T12:47:29;5.00;;;4.50;;
1879;SDS011;49285;49.002;8.390;2022-07-29T12:50:08;11.57;;;4.27;;
1879;SDS011;49285;49.002;8.390;2022-07-29T12:52:40;6.10;;;4.27;;
1879;SDS011;49285;49.002;8.390;2022-07-29T12:55:06;4.50;;;4.10;;
1879;SDS011;49285;49.002;8.390;2022-07-29T12:57:32;5.23;;;4.27;;
1879;SDS011;49285;49.002;8.390;2022-07-29T13:00:13;6.83;;;4.00;;
1879;SDS011;49285;49.002;8.390;2022-07-29T13:02:40;4.83;;;4.20;;
1879;SDS011;49285;49.002;8.390;2022-07-29T13:05:07;4.43;;;4.03;;
1879;SDS011;49285;49.002;8.390;2022-07-29T13:07:35;6.80;;;4.73;;
1879;SDS011;49285;49.002;8.390;2022-07-29T13:10:15;4.23;;;3.90;;
1879;SDS011;49285;49.002;8.390;2022-07-29T13:16:04;5.20;;;4.27;;
1879;SDS011;49285;49.002;8.390;2022-07-29T13:18:33;4.70;;;4.30;;
1879;SDS011;49285;49.002;8.390;2022-07-29T13:21:10;4.60;;;4.20;;
1879;SDS011;49285;49.002;8.390;2022-07-29T13:23:37;6.90;;;4.33;;
1879;SDS011;49285;49.002;8.390;2022-07-29T13:26:07;7.90;;;4.37;;
1879;SDS011;49285;49.002;8.390;2022-07-29T13:28:43;4.87;;;4.47;;
1879;SDS011;49285;49.002;8.390;2022-07-29T13:31:08;4.40;;;3.97;;
1879;SDS011;49285;49.002;8.390;2022-07-29T13:33:34;6.50;;;4.10;;
1879;SDS011;49285;49.002;8.390;2022-07-29T13:36:00;5.63;;;3.67;;
1879;SDS011;49285;49.002;8.390;2022-07-29T13:38:26;4.83;;;4.07;;
1879;SDS011;49285;49.002;8.390;2022-07-29T13:40:52;4.70;;;3.70;;
1879;SDS011;49285;49.002;8.390;2022-07-29T13:43:17;6.17;;;4.13;;
1879;SDS011;49285;49.002;8.390;2022-07-29T13:45:43;4.10;;;3.67;;
1879;SDS011;49285;49.002;8.390;2022-07-29T13:48:09;3.93;;;3.63;;
1879;SDS011;49285;49.002;8.390;2022-07-29T13:50:34;4.50;;;4.00;;
1879;SDS011;49285;49.002;8.390;2022-07-29T13:53:00;9.93;;;4.10;;
1879;SDS011;49285;49.002;8.390;2022-07-29T13:55:26;4.83;;;4.30;;
1879;SDS011;49285;49.002;8.390;2022-07-29T13:57:51;4.20;;;3.80;;
1879;SDS011;49285;49.002;8.390;2022-07-29T14:00:17;4.20;;;3.80;;
1879;SDS011;49285;49.002;8.390;2022-07-29T14:02:44;6.53;;;3.93;;
1879;SDS011;49285;49.002;8.390;2022-07-29T14:05:09;4.23;;;3.93;;
1879;SDS011;49285;49.002;8.390;2022-07-29T14:07:36;4.00;;;3.60;;
1879;SDS011;49285;49.002;8.390;2022-07-29T14:10:03;4.33;;;3.93;;
1879;SDS011;49285;49.002;8.390;2022-07-29T14:12:30;4.10;;;3.80;;
1879;SDS011;49285;49.002;8.390;2022-07-29T14:14:55;4.23;;;3.93;;
1879;SDS011;49285;49.002;8.390;2022-07-29T14:17:21;5.27;;;3.70;;
1879;SDS011;49285;49.002;8.390;2022-07-29T14:19:47;6.10;;;3.63;;
1879;SDS011;49285;49.002;8.390;2022-07-29T14:22:13;5.73;;;3.13;;
1879;SDS011;49285;49.002;8.390;2022-07-29T14:24:39;5.17;;;4.17;;
1879;SDS011;49285;49.002;8.390;2022-07-29T14:27:05;7.03;;;4.30;;
1879;SDS011;49285;49.002;8.390;2022-07-29T14:29:31;4.10;;;3.70;;
1879;SDS011;49285;49.002;8.390;2022-07-29T14:31:57;4.03;;;3.70;;
1879;SDS011;49285;49.002;8.390;2022-07-29T14:34:23;4.27;;;3.57;;
1879;SDS011;49285;49.002;8.390;2022-07-29T14:36:49;5.80;;;3.80;;
1879;SDS011;49285;49.002;8.390;2022-07-29T14:39:14;4.67;;;4.27;;
1879;SDS011;49285;49.002;8.390;2022-07-29T14:41:41;4.47;;;3.67;;
1879;SDS011;49285;49.002;8.390;2022-07-29T14:44:07;3.77;;;3.47;;
1879;SDS011;49285;49.002;8.390;2022-07-29T14:46:33;3.50;;;3.20;;
1879;SDS011;49285;49.002;8.390;2022-07-29T14:48:58;8.53;;;3.90;;
1879;SDS011;49285;49.002;8.390;2022-07-29T14:51:24;7.40;;;3.87;;
1879;SDS011;49285;49.002;8.390;2022-07-29T14:53:50;5.10;;;3.73;;
1879;SDS011;49285;49.002;8.390;2022-07-29T14:56:15;4.80;;;4.40;;
1879;SDS011;49285;49.002;8.390;2022-07-29T14:58:41;4.30;;;3.37;;
1879;SDS011;49285;49.002;8.390;2022-07-29T15:01:07;4.50;;;3.80;;
1879;SDS011;49285;49.002;8.390;2022-07-29T15:03:32;6.53;;;3.60;;
1879;SDS011;49285;49.002;8.390;2022-07-29T15:05:58;3.93;;;3.63;;
1879;SDS011;49285;49.002;8.390;2022-07-29T15:08:24;4.93;;;3.73;;
1879;SDS011;49285;49.002;8.390;2022-07-29T15:10:50;4.97;;;3.63;;
1879;SDS011;49285;49.002;8.390;2022-07-29T15:13:16;4.10;;;3.70;;
1879;SDS011;49285;49.002;8.390;2022-07-29T15:15:41;4.10;;;3.70;;
1879;SDS011;49285;49.002;8.390;2022-07-29T15:18:07;4.37;;;4.07;;
1879;SDS011;49285;49.002;8.390;2022-07-29T15:20:34;4.23;;;3.43;;
1879;SDS011;49285;49.002;8.390;2022-07-29T15:22:59;4.07;;;3.60;;
1879;SDS011;49285;49.002;8.390;2022-07-29T15:25:25;3.90;;;3.60;;
1879;SDS011;49285;49.002;8.390;2022-07-29T15:27:51;3.57;;;3.20;;
1879;SDS011;49285;49.002;8.390;2022-07-29T15:30:17;4.07;;;3.67;;
1879;SDS011;49285;49.002;8.390;2022-07-29T15:32:43;3.70;;;3.40;;
1879;SDS011;49285;49.002;8.390;2022-07-29T15:35:09;5.00;;;3.40;;
1879;SDS011;49285;49.002;8.390;2022-07-29T15:37:37;3.43;;;3.13;;
1879;SDS011;49285;49.002;8.390;2022-07-29T15:40:06;5.27;;;3.23;;
1879;SDS011;49285;49.002;8.390;2022-07-29T15:42:33;3.80;;;3.40;;
1879;SDS011;49285;49.002;8.390;2022-07-29T15:45:02;3.90;;;3.00;;
1879;SDS011;49285;49.002;8.390;2022-07-29T15:47:28;3.70;;;3.40;;
1879;SDS011;49285;49.002;8.390;2022-07-29T15:49:54;6.17;;;3.50;;
1879;SDS011;49285;49.002;8.390;2022-07-29T15:52:20;3.63;;;3.33;;
1879;SDS011;49285;49.002;8.390;2022-07-29T15:54:46;12.03;;;4.10;;
1879;SDS011;49285;49.002;8.390;2022-07-29T15:57:12;3.77;;;3.47;;
1879;SDS011;49285;49.002;8.390;2022-07-29T15:59:37;4.13;;;3.40;;
1879;SDS011;49285;49.002;8.390;2022-07-29T16:02:03;4.47;;;3.60;;
1879;SDS011;49285;49.002;8.390;2022-07-29T16:04:29;3.30;;;3.00;;
1879;SDS011;49285;49.002;8.390;2022-07-29T16:06:56;3.50;;;3.20;;